sensor_id;sensor_type;location;lat;lon;timestamp;P1;durP1;ratioP1;P2;durP2;ratioP2
15476;SDS011;7840;42.702;23.296;2023-07-13T00:01:14;8.77;;;6.68;;
15476;SDS011;7840;42.702;23.296;2023-07-13T00:03:43;10.23;;;6.55;;
15476;SDS011;7840;42.702;23.296;2023-07-13T00:06:10;7.15;;;6.20;;
15476;SDS011;7840;42.702;23.296;2023-07-13T00:08:37;12.15;;;7.18;;
15476;SDS011;7840;42.702;23.296;2023-07-13T00:11:05;8.60;;;6.43;;
15476;SDS011;7840;42.702;23.296;2023-07-13T00:13:32;10.27;;;6.80;;
15476;SDS011;7840;42.702;23.296;2023-07-13T00:15:59;11.02;;;6.40;;
15476;SDS011;7840;42.702;23.296;2023-07-13T00:18:27;8.88;;;6.53;;
15476;SDS011;7840;42.702;23.296;2023-07-13T00:20:56;7.32;;;6.53;;
15476;SDS011;7840;42.702;23.296;2023-07-13T00:23:30;9.60;;;6.68;;
15476;SDS011;7840;42.702;23.296;2023-07-13T00:25:59;9.70;;;7.00;;
15476;SDS011;7840;42.702;23.296;2023-07-13T00:28:27;7.60;;;6.80;;
15476;SDS011;7840;42.702;23.296;2023-07-13T00:30:54;8.77;;;6.20;;
15476;SDS011;7840;42.702;23.296;2023-07-13T00:33:21;9.25;;;7.10;;
15476;SDS011;7840;42.702;23.296;2023-07-13T00:35:49;7.05;;;6.35;;
15476;SDS011;7840;42.702;23.296;2023-07-13T00:38:18;9.02;;;7.10;;
15476;SDS011;7840;42.702;23.296;2023-07-13T00:40:45;11.18;;;6.72;;
15476;SDS011;7840;42.702;23.296;2023-07-13T00:43:13;7.53;;;6.78;;
15476;SDS011;7840;42.702;23.296;2023-07-13T00:48:27;8.20;;;7.32;;
15476;SDS011;7840;42.702;23.296;2023-07-13T00:50:57;8.40;;;6.93;;
15476;SDS011;7840;42.702;23.296;2023-07-13T00:53:27;12.07;;;7.05;;
15476;SDS011;7840;42.702;23.296;2023-07-13T00:55:54;10.55;;;7.53;;
15476;SDS011;7840;42.702;23.296;2023-07-13T00:58:23;7.75;;;6.95;;
15476;SDS011;7840;42.702;23.296;2023-07-13T01:00:51;9.23;;;7.03;;
15476;SDS011;7840;42.702;23.296;2023-07-13T01:03:18;9.00;;;7.47;;
15476;SDS011;7840;42.702;23.296;2023-07-13T01:05:46;9.57;;;7.30;;
15476;SDS011;7840;42.702;23.296;2023-07-13T01:08:14;8.05;;;7.20;;
15476;SDS011;7840;42.702;23.296;2023-07-13T01:10:43;7.88;;;6.97;;
15476;SDS011;7840;42.702;23.296;2023-07-13T01:13:17;8.10;;;7.25;;
15476;SDS011;7840;42.702;23.296;2023-07-13T01:15:46;12.23;;;6.85;;
15476;SDS011;7840;42.702;23.296;2023-07-13T01:18:14;7.45;;;6.72;;
15476;SDS011;7840;42.702;23.296;2023-07-13T01:20:49;10.18;;;6.78;;
15476;SDS011;7840;42.702;23.296;2023-07-13T01:23:17;11.90;;;7.03;;
15476;SDS011;7840;42.702;23.296;2023-07-13T01:25:45;9.23;;;6.82;;
15476;SDS011;7840;42.702;23.296;2023-07-13T01:28:12;8.40;;;6.75;;
15476;SDS011;7840;42.702;23.296;2023-07-13T01:30:42;9.05;;;7.32;;
15476;SDS011;7840;42.702;23.296;2023-07-13T01:33:11;8.20;;;7.30;;
15476;SDS011;7840;42.702;23.296;2023-07-13T01:35:39;8.18;;;6.40;;
15476;SDS011;7840;42.702;23.296;2023-07-13T01:38:09;8.05;;;6.57;;
15476;SDS011;7840;42.702;23.296;2023-07-13T01:40:37;9.13;;;6.40;;
15476;SDS011;7840;42.702;23.296;2023-07-13T01:43:04;7.28;;;6.47;;
15476;SDS011;7840;42.702;23.296;2023-07-13T01:45:32;7.07;;;6.47;;
15476;SDS011;7840;42.702;23.296;2023-07-13T01:47:59;8.98;;;6.15;;
15476;SDS011;7840;42.702;23.296;2023-07-13T01:50:27;6.95;;;6.25;;
15476;SDS011;7840;42.702;23.296;2023-07-13T01:52:54;8.05;;;7.15;;
15476;SDS011;7840;42.702;23.296;2023-07-13T01:55:23;7.40;;;5.95;;
15476;SDS011;7840;42.702;23.296;2023-07-13T01:57:50;8.07;;;6.60;;
15476;SDS011;7840;42.702;23.296;2023-07-13T02:00:17;10.57;;;6.60;;
15476;SDS011;7840;42.702;23.296;2023-07-13T02:02:45;7.25;;;6.47;;
15476;SDS011;7840;42.702;23.296;2023-07-13T02:05:12;7.45;;;6.75;;
15476;SDS011;7840;42.702;23.296;2023-07-13T02:07:40;7.28;;;6.57;;
15476;SDS011;7840;42.702;23.296;2023-07-13T02:10:08;8.93;;;6.72;;
15476;SDS011;7840;42.702;23.296;2023-07-13T02:12:37;7.00;;;6.28;;
15476;SDS011;7840;42.702;23.296;2023-07-13T02:15:05;7.00;;;6.28;;
15476;SDS011;7840;42.702;23.296;2023-07-13T02:17:33;8.10;;;6.07;;
15476;SDS011;7840;42.702;23.296;2023-07-13T02:20:01;7.72;;;6.80;;
15476;SDS011;7840;42.702;23.296;2023-07-13T02:22:28;8.38;;;6.93;;
15476;SDS011;7840;42.702;23.296;2023-07-13T02:24:56;9.82;;;6.88;;
15476;SDS011;7840;42.702;23.296;2023-07-13T02:27:23;11.20;;;7.50;;
15476;SDS011;7840;42.702;23.296;2023-07-13T02:29:52;8.82;;;6.65;;
15476;SDS011;7840;42.702;23.296;2023-07-13T02:32:19;9.32;;;6.75;;
15476;SDS011;7840;42.702;23.296;2023-07-13T02:34:46;9.75;;;6.72;;
15476;SDS011;7840;42.702;23.296;2023-07-13T02:37:14;9.63;;;7.15;;
15476;SDS011;7840;42.702;23.296;2023-07-13T02:39:41;8.13;;;7.38;;
15476;SDS011;7840;42.702;23.296;2023-07-13T02:42:09;8.70;;;6.82;;
15476;SDS011;7840;42.702;23.296;2023-07-13T02:44:36;10.05;;;7.22;;
15476;SDS011;7840;42.702;23.296;2023-07-13T02:47:05;9.65;;;7.53;;
15476;SDS011;7840;42.702;23.296;2023-07-13T02:49:32;13.07;;;7.35;;
15476;SDS011;7840;42.702;23.296;2023-07-13T02:51:59;10.95;;;6.80;;
15476;SDS011;7840;42.702;23.296;2023-07-13T02:54:29;10.63;;;7.13;;
15476;SDS011;7840;42.702;23.296;2023-07-13T02:56:56;7.95;;;7.18;;
15476;SDS011;7840;42.702;23.296;2023-07-13T02:59:23;7.95;;;7.00;;
15476;SDS011;7840;42.702;23.296;2023-07-13T03:01:51;8.23;;;7.43;;
15476;SDS011;7840;42.702;23.296;2023-07-13T03:04:19;9.77;;;7.43;;
15476;SDS011;7840;42.702;23.296;2023-07-13T03:06:47;8.90;;;7.78;;
15476;SDS011;7840;42.702;23.296;2023-07-13T03:09:14;8.70;;;7.63;;
15476;SDS011;7840;42.702;23.296;2023-07-13T03:11:41;10.80;;;7.30;;
15476;SDS011;7840;42.702;23.296;2023-07-13T03:14:09;8.55;;;7.80;;
15476;SDS011;7840;42.702;23.296;2023-07-13T03:16:36;9.38;;;7.88;;
15476;SDS011;7840;42.702;23.296;2023-07-13T03:19:03;10.38;;;8.00;;
15476;SDS011;7840;42.702;23.296;2023-07-13T03:21:32;8.82;;;8.02;;
15476;SDS011;7840;42.702;23.296;2023-07-13T03:23:59;8.77;;;7.93;;
15476;SDS011;7840;42.702;23.296;2023-07-13T03:26:27;8.85;;;7.60;;
15476;SDS011;7840;42.702;23.296;2023-07-13T03:28:54;11.45;;;8.73;;
15476;SDS011;7840;42.702;23.296;2023-07-13T03:31:22;9.15;;;7.85;;
15476;SDS011;7840;42.702;23.296;2023-07-13T03:33:50;12.20;;;8.45;;
15476;SDS011;7840;42.702;23.296;2023-07-13T03:36:18;11.30;;;8.13;;
15476;SDS011;7840;42.702;23.296;2023-07-13T03:38:47;12.05;;;8.48;;
15476;SDS011;7840;42.702;23.296;2023-07-13T03:41:14;9.02;;;8.13;;
15476;SDS011;7840;42.702;23.296;2023-07-13T03:43:42;9.45;;;8.15;;
15476;SDS011;7840;42.702;23.296;2023-07-13T03:46:13;15.38;;;7.95;;
15476;SDS011;7840;42.702;23.296;2023-07-13T03:48:40;9.20;;;8.30;;
15476;SDS011;7840;42.702;23.296;2023-07-13T03:51:08;9.63;;;8.63;;
15476;SDS011;7840;42.702;23.296;2023-07-13T03:53:37;11.27;;;9.52;;
15476;SDS011;7840;42.702;23.296;2023-07-13T03:56:09;11.45;;;8.20;;
15476;SDS011;7840;42.702;23.296;2023-07-13T03:58:38;16.05;;;9.15;;
15476;SDS011;7840;42.702;23.296;2023-07-13T04:01:06;10.73;;;9.30;;
15476;SDS011;7840;42.702;23.296;2023-07-13T04:03:34;12.13;;;8.60;;
15476;SDS011;7840;42.702;23.296;2023-07-13T04:06:02;12.68;;;9.20;;
15476;SDS011;7840;42.702;23.296;2023-07-13T04:08:30;13.05;;;9.70;;
15476;SDS011;7840;42.702;23.296;2023-07-13T04:10:58;12.48;;;8.88;;
15476;SDS011;7840;42.702;23.296;2023-07-13T04:13:27;10.77;;;9.45;;
15476;SDS011;7840;42.702;23.296;2023-07-13T04:15:54;13.05;;;9.43;;
15476;SDS011;7840;42.702;23.296;2023-07-13T04:18:22;11.40;;;9.77;;
15476;SDS011;7840;42.702;23.296;2023-07-13T04:20:52;10.70;;;8.55;;
15476;SDS011;7840;42.702;23.296;2023-07-13T04:23:23;13.43;;;10.85;;
15476;SDS011;7840;42.702;23.296;2023-07-13T04:25:51;11.88;;;9.02;;
15476;SDS011;7840;42.702;23.296;2023-07-13T04:28:19;13.43;;;9.52;;
15476;SDS011;7840;42.702;23.296;2023-07-13T04:30:48;15.18;;;9.90;;
15476;SDS011;7840;42.702;23.296;2023-07-13T04:33:15;17.10;;;10.20;;
15476;SDS011;7840;42.702;23.296;2023-07-13T04:35:43;13.77;;;9.80;;
15476;SDS011;7840;42.702;23.296;2023-07-13T04:38:11;12.38;;;9.45;;
15476;SDS011;7840;42.702;23.296;2023-07-13T04:40:41;15.43;;;10.35;;
15476;SDS011;7840;42.702;23.296;2023-07-13T04:43:09;14.90;;;9.40;;
15476;SDS011;7840;42.702;23.296;2023-07-13T04:45:37;12.60;;;9.35;;
15476;SDS011;7840;42.702;23.296;2023-07-13T04:48:06;11.10;;;8.85;;
15476;SDS011;7840;42.702;23.296;2023-07-13T04:50:35;13.55;;;10.35;;
15476;SDS011;7840;42.702;23.296;2023-07-13T04:53:03;20.15;;;10.27;;
15476;SDS011;7840;42.702;23.296;2023-07-13T04:55:31;11.23;;;10.13;;
15476;SDS011;7840;42.702;23.296;2023-07-13T04:57:58;15.27;;;11.00;;
15476;SDS011;7840;42.702;23.296;2023-07-13T05:00:26;14.95;;;9.98;;
15476;SDS011;7840;42.702;23.296;2023-07-13T05:02:54;16.77;;;10.48;;
15476;SDS011;7840;42.702;23.296;2023-07-13T05:05:23;11.38;;;10.05;;
15476;SDS011;7840;42.702;23.296;2023-07-13T05:07:51;18.25;;;10.30;;
15476;SDS011;7840;42.702;23.296;2023-07-13T05:10:18;11.80;;;10.45;;
15476;SDS011;7840;42.702;23.296;2023-07-13T05:12:46;11.65;;;9.77;;
15476;SDS011;7840;42.702;23.296;2023-07-13T05:15:13;12.38;;;10.00;;
15476;SDS011;7840;42.702;23.296;2023-07-13T05:17:40;13.27;;;9.52;;
15476;SDS011;7840;42.702;23.296;2023-07-13T05:20:08;16.48;;;10.05;;
15476;SDS011;7840;42.702;23.296;2023-07-13T05:22:37;12.00;;;8.60;;
15476;SDS011;7840;42.702;23.296;2023-07-13T05:25:04;12.13;;;8.93;;
15476;SDS011;7840;42.702;23.296;2023-07-13T05:27:32;14.38;;;9.32;;
15476;SDS011;7840;42.702;23.296;2023-07-13T05:30:00;11.48;;;9.50;;
15476;SDS011;7840;42.702;23.296;2023-07-13T05:32:27;11.48;;;9.35;;
15476;SDS011;7840;42.702;23.296;2023-07-13T05:34:54;13.23;;;9.95;;
15476;SDS011;7840;42.702;23.296;2023-07-13T05:37:22;13.80;;;9.85;;
15476;SDS011;7840;42.702;23.296;2023-07-13T05:39:50;17.02;;;9.88;;
15476;SDS011;7840;42.702;23.296;2023-07-13T05:42:18;11.70;;;9.23;;
15476;SDS011;7840;42.702;23.296;2023-07-13T05:44:45;16.33;;;10.40;;
15476;SDS011;7840;42.702;23.296;2023-07-13T05:47:12;14.50;;;9.45;;
15476;SDS011;7840;42.702;23.296;2023-07-13T05:49:40;19.77;;;9.15;;
15476;SDS011;7840;42.702;23.296;2023-07-13T05:52:07;22.73;;;10.55;;
15476;SDS011;7840;42.702;23.296;2023-07-13T05:54:35;13.32;;;10.18;;
15476;SDS011;7840;42.702;23.296;2023-07-13T05:57:04;14.95;;;10.02;;
15476;SDS011;7840;42.702;23.296;2023-07-13T05:59:31;14.05;;;9.85;;
15476;SDS011;7840;42.702;23.296;2023-07-13T06:01:58;16.02;;;9.55;;
15476;SDS011;7840;42.702;23.296;2023-07-13T06:04:26;11.68;;;9.75;;
15476;SDS011;7840;42.702;23.296;2023-07-13T06:06:53;19.35;;;9.77;;
15476;SDS011;7840;42.702;23.296;2023-07-13T06:09:20;15.35;;;10.38;;
15476;SDS011;7840;42.702;23.296;2023-07-13T06:11:48;13.32;;;9.63;;
15476;SDS011;7840;42.702;23.296;2023-07-13T06:14:16;12.98;;;10.60;;
15476;SDS011;7840;42.702;23.296;2023-07-13T06:16:43;13.63;;;11.07;;
15476;SDS011;7840;42.702;23.296;2023-07-13T06:19:11;11.98;;;10.45;;
15476;SDS011;7840;42.702;23.296;2023-07-13T06:21:38;14.07;;;10.77;;
15476;SDS011;7840;42.702;23.296;2023-07-13T06:24:05;14.60;;;9.32;;
15476;SDS011;7840;42.702;23.296;2023-07-13T06:26:33;11.98;;;10.30;;
15476;SDS011;7840;42.702;23.296;2023-07-13T06:29:00;11.73;;;9.32;;
15476;SDS011;7840;42.702;23.296;2023-07-13T06:31:29;13.45;;;9.60;;
15476;SDS011;7840;42.702;23.296;2023-07-13T06:33:56;15.15;;;8.80;;
15476;SDS011;7840;42.702;23.296;2023-07-13T06:36:23;11.38;;;9.98;;
15476;SDS011;7840;42.702;23.296;2023-07-13T06:38:51;11.85;;;8.95;;
15476;SDS011;7840;42.702;23.296;2023-07-13T06:41:18;13.43;;;9.13;;
15476;SDS011;7840;42.702;23.296;2023-07-13T06:43:47;13.30;;;9.43;;
15476;SDS011;7840;42.702;23.296;2023-07-13T06:46:14;11.10;;;9.23;;
15476;SDS011;7840;42.702;23.296;2023-07-13T06:48:43;12.88;;;9.70;;
15476;SDS011;7840;42.702;23.296;2023-07-13T06:51:10;15.48;;;9.23;;
15476;SDS011;7840;42.702;23.296;2023-07-13T06:53:37;12.13;;;9.02;;
15476;SDS011;7840;42.702;23.296;2023-07-13T06:56:05;10.95;;;8.65;;
15476;SDS011;7840;42.702;23.296;2023-07-13T06:58:33;11.77;;;10.05;;
15476;SDS011;7840;42.702;23.296;2023-07-13T07:01:00;12.90;;;9.77;;
15476;SDS011;7840;42.702;23.296;2023-07-13T07:03:30;13.85;;;9.80;;
15476;SDS011;7840;42.702;23.296;2023-07-13T07:06:01;16.45;;;9.52;;
15476;SDS011;7840;42.702;23.296;2023-07-13T07:08:28;18.15;;;8.80;;
15476;SDS011;7840;42.702;23.296;2023-07-13T07:10:56;11.38;;;8.82;;
15476;SDS011;7840;42.702;23.296;2023-07-13T07:13:23;12.95;;;9.60;;
15476;SDS011;7840;42.702;23.296;2023-07-13T07:15:50;15.13;;;9.43;;
15476;SDS011;7840;42.702;23.296;2023-07-13T07:18:18;17.23;;;9.60;;
15476;SDS011;7840;42.702;23.296;2023-07-13T07:20:45;16.70;;;9.15;;
15476;SDS011;7840;42.702;23.296;2023-07-13T07:23:14;11.93;;;10.10;;
15476;SDS011;7840;42.702;23.296;2023-07-13T07:25:42;18.58;;;10.02;;
15476;SDS011;7840;42.702;23.296;2023-07-13T07:28:10;12.15;;;9.55;;
15476;SDS011;7840;42.702;23.296;2023-07-13T07:30:37;13.45;;;9.75;;
15476;SDS011;7840;42.702;23.296;2023-07-13T07:33:08;11.10;;;9.75;;
15476;SDS011;7840;42.702;23.296;2023-07-13T07:35:35;13.20;;;9.95;;
15476;SDS011;7840;42.702;23.296;2023-07-13T07:38:03;13.20;;;9.63;;
15476;SDS011;7840;42.702;23.296;2023-07-13T07:40:37;13.05;;;9.60;;
15476;SDS011;7840;42.702;23.296;2023-07-13T07:43:05;15.18;;;10.30;;
15476;SDS011;7840;42.702;23.296;2023-07-13T07:45:32;16.33;;;10.30;;
15476;SDS011;7840;42.702;23.296;2023-07-13T07:48:00;13.85;;;10.65;;
15476;SDS011;7840;42.702;23.296;2023-07-13T07:50:27;14.23;;;9.70;;
15476;SDS011;7840;42.702;23.296;2023-07-13T07:52:55;10.98;;;9.43;;
15476;SDS011;7840;42.702;23.296;2023-07-13T07:55:22;13.25;;;9.85;;
15476;SDS011;7840;42.702;23.296;2023-07-13T07:57:53;18.33;;;10.20;;
15476;SDS011;7840;42.702;23.296;2023-07-13T08:00:20;16.77;;;10.20;;
15476;SDS011;7840;42.702;23.296;2023-07-13T08:02:48;11.43;;;10.10;;
15476;SDS011;7840;42.702;23.296;2023-07-13T08:05:15;16.90;;;10.00;;
15476;SDS011;7840;42.702;23.296;2023-07-13T08:07:43;16.33;;;9.38;;
15476;SDS011;7840;42.702;23.296;2023-07-13T08:10:10;15.30;;;9.88;;
15476;SDS011;7840;42.702;23.296;2023-07-13T08:12:38;11.35;;;8.82;;
15476;SDS011;7840;42.702;23.296;2023-07-13T08:15:09;15.55;;;8.80;;
15476;SDS011;7840;42.702;23.296;2023-07-13T08:17:37;16.67;;;9.32;;
15476;SDS011;7840;42.702;23.296;2023-07-13T08:20:05;11.73;;;9.07;;
15476;SDS011;7840;42.702;23.296;2023-07-13T08:22:33;13.13;;;8.93;;
15476;SDS011;7840;42.702;23.296;2023-07-13T08:25:00;21.33;;;9.52;;
15476;SDS011;7840;42.702;23.296;2023-07-13T08:27:28;16.17;;;9.85;;
15476;SDS011;7840;42.702;23.296;2023-07-13T08:29:55;13.00;;;9.05;;
15476;SDS011;7840;42.702;23.296;2023-07-13T08:32:24;11.57;;;8.90;;
15476;SDS011;7840;42.702;23.296;2023-07-13T08:34:53;18.17;;;9.57;;
15476;SDS011;7840;42.702;23.296;2023-07-13T08:37:20;10.45;;;9.38;;
15476;SDS011;7840;42.702;23.296;2023-07-13T08:39:48;13.98;;;9.05;;
15476;SDS011;7840;42.702;23.296;2023-07-13T08:42:26;14.65;;;8.77;;
15476;SDS011;7840;42.702;23.296;2023-07-13T08:45:01;15.00;;;9.27;;
15476;SDS011;7840;42.702;23.296;2023-07-13T08:47:32;9.85;;;8.60;;
15476;SDS011;7840;42.702;23.296;2023-07-13T08:50:01;12.00;;;8.68;;
15476;SDS011;7840;42.702;23.296;2023-07-13T08:52:29;14.40;;;9.05;;
15476;SDS011;7840;42.702;23.296;2023-07-13T08:54:58;9.68;;;8.35;;
15476;SDS011;7840;42.702;23.296;2023-07-13T08:57:32;10.45;;;8.43;;
15476;SDS011;7840;42.702;23.296;2023-07-13T09:00:01;12.65;;;8.48;;
15476;SDS011;7840;42.702;23.296;2023-07-13T09:02:38;10.20;;;8.80;;
15476;SDS011;7840;42.702;23.296;2023-07-13T09:05:09;11.50;;;8.43;;
15476;SDS011;7840;42.702;23.296;2023-07-13T09:07:40;14.45;;;9.50;;
15476;SDS011;7840;42.702;23.296;2023-07-13T09:10:11;17.50;;;9.43;;
15476;SDS011;7840;42.702;23.296;2023-07-13T09:12:45;18.15;;;9.00;;
15476;SDS011;7840;42.702;23.296;2023-07-13T09:15:20;11.95;;;8.50;;
15476;SDS011;7840;42.702;23.296;2023-07-13T09:17:50;17.40;;;9.45;;
15476;SDS011;7840;42.702;23.296;2023-07-13T09:20:19;13.52;;;9.98;;
15476;SDS011;7840;42.702;23.296;2023-07-13T09:22:48;14.45;;;9.32;;
15476;SDS011;7840;42.702;23.296;2023-07-13T09:25:20;11.35;;;9.60;;
15476;SDS011;7840;42.702;23.296;2023-07-13T09:27:48;12.35;;;9.05;;
15476;SDS011;7840;42.702;23.296;2023-07-13T09:30:24;19.17;;;10.80;;
15476;SDS011;7840;42.702;23.296;2023-07-13T09:32:53;13.60;;;9.98;;
15476;SDS011;7840;42.702;23.296;2023-07-13T09:35:24;13.68;;;8.30;;
15476;SDS011;7840;42.702;23.296;2023-07-13T09:37:56;9.27;;;7.57;;
15476;SDS011;7840;42.702;23.296;2023-07-13T09:40:24;9.68;;;7.40;;
15476;SDS011;7840;42.702;23.296;2023-07-13T09:42:54;10.98;;;7.18;;
15476;SDS011;7840;42.702;23.296;2023-07-13T09:45:26;11.00;;;7.72;;
15476;SDS011;7840;42.702;23.296;2023-07-13T09:48:02;10.40;;;7.80;;
15476;SDS011;7840;42.702;23.296;2023-07-13T09:50:30;12.02;;;7.45;;
15476;SDS011;7840;42.702;23.296;2023-07-13T09:52:57;18.23;;;8.15;;
15476;SDS011;7840;42.702;23.296;2023-07-13T09:55:26;13.80;;;7.72;;
15476;SDS011;7840;42.702;23.296;2023-07-13T09:57:54;11.73;;;7.88;;
15476;SDS011;7840;42.702;23.296;2023-07-13T10:00:22;12.88;;;8.15;;
15476;SDS011;7840;42.702;23.296;2023-07-13T10:02:57;8.82;;;5.68;;
15476;SDS011;7840;42.702;23.296;2023-07-13T10:05:26;8.98;;;5.50;;
15476;SDS011;7840;42.702;23.296;2023-07-13T10:07:55;10.30;;;5.53;;
15476;SDS011;7840;42.702;23.296;2023-07-13T10:10:23;10.75;;;5.30;;
15476;SDS011;7840;42.702;23.296;2023-07-13T10:12:50;9.30;;;5.45;;
15476;SDS011;7840;42.702;23.296;2023-07-13T10:15:19;7.18;;;5.07;;
15476;SDS011;7840;42.702;23.296;2023-07-13T10:17:46;7.05;;;5.38;;
15476;SDS011;7840;42.702;23.296;2023-07-13T10:20:15;7.93;;;5.80;;
15476;SDS011;7840;42.702;23.296;2023-07-13T10:22:44;12.52;;;5.53;;
15476;SDS011;7840;42.702;23.296;2023-07-13T10:25:13;7.57;;;5.32;;
15476;SDS011;7840;42.702;23.296;2023-07-13T10:27:42;7.15;;;5.72;;
15476;SDS011;7840;42.702;23.296;2023-07-13T10:30:12;8.25;;;5.13;;
15476;SDS011;7840;42.702;23.296;2023-07-13T10:32:41;5.38;;;4.88;;
15476;SDS011;7840;42.702;23.296;2023-07-13T10:35:09;6.30;;;5.05;;
15476;SDS011;7840;42.702;23.296;2023-07-13T10:37:40;7.25;;;5.18;;
15476;SDS011;7840;42.702;23.296;2023-07-13T10:40:13;11.88;;;5.47;;
15476;SDS011;7840;42.702;23.296;2023-07-13T10:42:42;6.18;;;4.97;;
15476;SDS011;7840;42.702;23.296;2023-07-13T10:45:13;7.22;;;5.32;;
15476;SDS011;7840;42.702;23.296;2023-07-13T10:47:41;7.28;;;4.70;;
15476;SDS011;7840;42.702;23.296;2023-07-13T10:50:12;7.45;;;5.25;;
15476;SDS011;7840;42.702;23.296;2023-07-13T10:52:42;7.45;;;4.75;;
15476;SDS011;7840;42.702;23.296;2023-07-13T10:58:14;6.90;;;4.68;;
15476;SDS011;7840;42.702;23.296;2023-07-13T11:00:46;6.15;;;4.90;;
15476;SDS011;7840;42.702;23.296;2023-07-13T11:03:15;6.30;;;4.85;;
15476;SDS011;7840;42.702;23.296;2023-07-13T11:05:43;9.38;;;5.35;;
15476;SDS011;7840;42.702;23.296;2023-07-13T11:08:13;7.47;;;4.75;;
15476;SDS011;7840;42.702;23.296;2023-07-13T11:10:51;13.82;;;5.53;;
15476;SDS011;7840;42.702;23.296;2023-07-13T11:13:55;5.97;;;4.88;;
15476;SDS011;7840;42.702;23.296;2023-07-13T11:16:34;8.68;;;4.90;;
15476;SDS011;7840;42.702;23.296;2023-07-13T11:19:23;8.85;;;5.30;;
15476;SDS011;7840;42.702;23.296;2023-07-13T11:27:34;14.00;;;5.72;;
15476;SDS011;7840;42.702;23.296;2023-07-13T11:32:52;8.23;;;5.45;;
15476;SDS011;7840;42.702;23.296;2023-07-13T11:35:31;9.40;;;5.80;;
15476;SDS011;7840;42.702;23.296;2023-07-13T11:37:59;7.28;;;5.28;;
15476;SDS011;7840;42.702;23.296;2023-07-13T11:40:27;6.88;;;5.22;;
15476;SDS011;7840;42.702;23.296;2023-07-13T11:43:00;6.85;;;5.13;;
15476;SDS011;7840;42.702;23.296;2023-07-13T11:45:27;8.68;;;5.05;;
15476;SDS011;7840;42.702;23.296;2023-07-13T11:47:56;6.20;;;5.22;;
15476;SDS011;7840;42.702;23.296;2023-07-13T11:50:25;11.02;;;5.50;;
15476;SDS011;7840;42.702;23.296;2023-07-13T11:52:52;8.75;;;5.93;;
15476;SDS011;7840;42.702;23.296;2023-07-13T11:55:22;6.82;;;5.22;;
15476;SDS011;7840;42.702;23.296;2023-07-13T11:57:51;10.32;;;5.60;;
15476;SDS011;7840;42.702;23.296;2023-07-13T12:00:21;10.50;;;5.72;;
15476;SDS011;7840;42.702;23.296;2023-07-13T12:02:52;11.23;;;5.32;;
15476;SDS011;7840;42.702;23.296;2023-07-13T12:05:21;8.15;;;5.65;;
15476;SDS011;7840;42.702;23.296;2023-07-13T12:07:52;9.25;;;5.22;;
15476;SDS011;7840;42.702;23.296;2023-07-13T12:10:22;11.80;;;5.45;;
15476;SDS011;7840;42.702;23.296;2023-07-13T12:12:55;11.77;;;5.70;;
15476;SDS011;7840;42.702;23.296;2023-07-13T12:15:28;10.93;;;5.32;;
15476;SDS011;7840;42.702;23.296;2023-07-13T12:17:57;11.02;;;5.22;;
15476;SDS011;7840;42.702;23.296;2023-07-13T12:20:30;8.02;;;5.60;;
15476;SDS011;7840;42.702;23.296;2023-07-13T12:23:00;8.18;;;5.50;;
15476;SDS011;7840;42.702;23.296;2023-07-13T12:25:29;7.13;;;5.40;;
15476;SDS011;7840;42.702;23.296;2023-07-13T12:27:57;6.13;;;5.30;;
15476;SDS011;7840;42.702;23.296;2023-07-13T12:30:25;5.32;;;4.80;;
15476;SDS011;7840;42.702;23.296;2023-07-13T12:32:58;10.05;;;5.40;;
15476;SDS011;7840;42.702;23.296;2023-07-13T12:35:26;7.60;;;4.97;;
15476;SDS011;7840;42.702;23.296;2023-07-13T12:37:58;8.02;;;5.60;;
15476;SDS011;7840;42.702;23.296;2023-07-13T12:40:26;9.57;;;5.28;;
15476;SDS011;7840;42.702;23.296;2023-07-13T12:42:54;7.20;;;5.13;;
15476;SDS011;7840;42.702;23.296;2023-07-13T12:45:24;11.23;;;5.55;;
15476;SDS011;7840;42.702;23.296;2023-07-13T12:47:53;11.02;;;5.90;;
15476;SDS011;7840;42.702;23.296;2023-07-13T12:50:29;9.05;;;5.85;;
15476;SDS011;7840;42.702;23.296;2023-07-13T12:53:01;10.70;;;5.30;;
15476;SDS011;7840;42.702;23.296;2023-07-13T12:55:29;10.73;;;5.32;;
15476;SDS011;7840;42.702;23.296;2023-07-13T12:57:59;10.07;;;5.22;;
15476;SDS011;7840;42.702;23.296;2023-07-13T13:00:27;7.22;;;4.88;;
15476;SDS011;7840;42.702;23.296;2023-07-13T13:02:56;11.18;;;5.38;;
15476;SDS011;7840;42.702;23.296;2023-07-13T13:05:26;6.93;;;5.15;;
15476;SDS011;7840;42.702;23.296;2023-07-13T13:07:54;8.70;;;5.45;;
15476;SDS011;7840;42.702;23.296;2023-07-13T13:10:23;7.90;;;4.93;;
15476;SDS011;7840;42.702;23.296;2023-07-13T13:12:51;7.55;;;4.88;;
15476;SDS011;7840;42.702;23.296;2023-07-13T13:15:19;6.68;;;5.18;;
15476;SDS011;7840;42.702;23.296;2023-07-13T13:17:47;14.52;;;5.43;;
15476;SDS011;7840;42.702;23.296;2023-07-13T13:20:15;10.45;;;5.13;;
15476;SDS011;7840;42.702;23.296;2023-07-13T13:22:43;7.93;;;5.13;;
15476;SDS011;7840;42.702;23.296;2023-07-13T13:25:10;6.18;;;5.30;;
15476;SDS011;7840;42.702;23.296;2023-07-13T13:27:39;7.97;;;5.25;;
15476;SDS011;7840;42.702;23.296;2023-07-13T13:30:10;14.68;;;5.47;;
15476;SDS011;7840;42.702;23.296;2023-07-13T13:32:38;9.85;;;5.68;;
15476;SDS011;7840;42.702;23.296;2023-07-13T13:35:07;6.88;;;4.95;;
15476;SDS011;7840;42.702;23.296;2023-07-13T13:37:39;7.75;;;5.47;;
15476;SDS011;7840;42.702;23.296;2023-07-13T13:40:13;10.45;;;4.95;;
15476;SDS011;7840;42.702;23.296;2023-07-13T13:42:42;8.10;;;5.30;;
15476;SDS011;7840;42.702;23.296;2023-07-13T13:45:10;13.27;;;5.38;;
15476;SDS011;7840;42.702;23.296;2023-07-13T13:47:38;7.07;;;5.47;;
15476;SDS011;7840;42.702;23.296;2023-07-13T13:50:12;15.18;;;5.68;;
15476;SDS011;7840;42.702;23.296;2023-07-13T13:52:40;12.23;;;5.50;;
15476;SDS011;7840;42.702;23.296;2023-07-13T13:55:11;8.38;;;5.35;;
15476;SDS011;7840;42.702;23.296;2023-07-13T13:57:39;10.15;;;4.80;;
15476;SDS011;7840;42.702;23.296;2023-07-13T14:00:09;8.93;;;4.93;;
15476;SDS011;7840;42.702;23.296;2023-07-13T14:02:39;7.22;;;4.90;;
15476;SDS011;7840;42.702;23.296;2023-07-13T14:05:09;6.80;;;4.97;;
15476;SDS011;7840;42.702;23.296;2023-07-13T14:07:37;13.35;;;5.90;;
15476;SDS011;7840;42.702;23.296;2023-07-13T14:10:08;8.85;;;5.03;;
15476;SDS011;7840;42.702;23.296;2023-07-13T14:12:40;8.88;;;5.30;;
15476;SDS011;7840;42.702;23.296;2023-07-13T14:15:14;6.43;;;5.40;;
15476;SDS011;7840;42.702;23.296;2023-07-13T14:17:45;7.15;;;5.68;;
15476;SDS011;7840;42.702;23.296;2023-07-13T14:20:14;10.07;;;5.50;;
15476;SDS011;7840;42.702;23.296;2023-07-13T14:22:42;6.07;;;4.97;;
15476;SDS011;7840;42.702;23.296;2023-07-13T14:25:13;12.18;;;5.55;;
15476;SDS011;7840;42.702;23.296;2023-07-13T14:27:40;11.85;;;5.55;;
15476;SDS011;7840;42.702;23.296;2023-07-13T14:30:13;11.32;;;5.40;;
15476;SDS011;7840;42.702;23.296;2023-07-13T14:32:40;8.68;;;4.82;;
15476;SDS011;7840;42.702;23.296;2023-07-13T14:35:10;10.57;;;5.20;;
15476;SDS011;7840;42.702;23.296;2023-07-13T14:37:39;11.38;;;5.80;;
15476;SDS011;7840;42.702;23.296;2023-07-13T14:40:12;9.65;;;6.00;;
15476;SDS011;7840;42.702;23.296;2023-07-13T14:42:39;9.68;;;5.28;;
15476;SDS011;7840;42.702;23.296;2023-07-13T14:45:12;13.68;;;5.65;;
15476;SDS011;7840;42.702;23.296;2023-07-13T14:47:40;9.32;;;5.65;;
15476;SDS011;7840;42.702;23.296;2023-07-13T14:50:12;6.13;;;5.15;;
15476;SDS011;7840;42.702;23.296;2023-07-13T14:52:41;9.80;;;5.53;;
15476;SDS011;7840;42.702;23.296;2023-07-13T14:55:10;8.52;;;5.10;;
15476;SDS011;7840;42.702;23.296;2023-07-13T14:57:37;17.90;;;5.53;;
15476;SDS011;7840;42.702;23.296;2023-07-13T15:00:05;11.35;;;5.72;;
15476;SDS011;7840;42.702;23.296;2023-07-13T15:02:42;8.20;;;5.20;;